Airfield :
LOGIN :

Register | Disclaimer

   EN    FR    IT 

 










Legend :    VFR   Marginal VFR   IFR   Intensive IFR   Very Intensive IFR
Visi :
Ceiling :
>= 8 km
>= 3000ft
5 to 8 km
1000 to 3000 ft
1500m to 5 km
500 to 1000 ft
800 to 1500m
200 to 500 ft
< 800m
< 200 ft
Symbols :   Thunderstorms  Fog  Heavy snow  Heavy precipitations  Wind > 20 kt
SIGMETs :     Misc.  Thunderstorms  Icing  Turbulence  Mountain Waves  Volcanic Ashes






- Airport Elevation : 796 ft
- IATA code : SYT


LFLN - Saint-Yan

CURRENT METAR :
  • 011230Z AUTO 31007KT 9999 SCT020 BKN026 OVC037 07/04 Q1031 TEMPO BKN010

EXPIRED METARs :
  • 011200Z AUTO 32009KT 9999 BKN020 BKN025 OVC032 07/04 Q1031 TEMPO BKN010
  • 011130Z AUTO 30007KT 9999 BKN016 OVC024 07/04 Q1031 TEMPO BKN010
  • 011100Z AUTO 29006KT 9999 BKN010 OVC016 06/04 Q1031 BECMG SCT010 BKN025
  • 011030Z AUTO 29005KT 260V320 9999 BKN008 OVC013 06/05 Q1031 BECMG SCT010 BKN025
  • 011000Z AUTO 30006KT 8000 OVC005 05/04 Q1032 NOSIG

TAF TAF LFLN
Valid from the 01 at 12:00 until the 01 at 21:00 UTC


011100Z 0112/0121 VRB04KT 9999 SCT010 BKN025
TEMPO 0112/0118 29010KT
PROB40
TEMPO 0112/0121 -RA BKN010



MET'MAP, your aeronautical weather chart ! - Copyright ORBIFLY December 2007 - Disclaimer

ORBIFLY MET'MAP TEAM :

Programming & Development : Alexandra Zaïnal
Original concept : Baudouin d'Aumeries
Technical & hardware support : Manuel Goepfert
Assistance : Marc-Olivier Méhu




SOURCES & CREDITS :

   NOAA